Whites Addition, Illinois
Current Conditions -  °F | °C
As of 1:52 AM on Saturday 01 Nov 2014 (Local Time) from KMLI Reporting Station
Clear Clear  
Wind Chill: 26°   Ceiling: Unl
Heat Index: 31°   Visibility: 10mi
Dew Point: 18°   Wind: 5mph
Humidity: 59%   Direction: 340°NNW
Pressure: 30.45"   Gusts: NA
Location:  41.5228°N, 90.3951°W
Report Text: KMLI 010652Z AUTO 34004KT 10SM CLR M01/M08 A3045 RMK AO2 SLP317 T10061078 $
Loading
Personal Weather Stations






























Interactive Weather Map
Tropical Storm Tracking
New forecast layout! Learn more

10-Day Weather Forecast

Advertisements
Track Severe Weather on mobile